Weather History for Two Harbors, MN

Change the Weather History Date:

Sunday, May 6, 2012

  Actual Average Record
Temperature  
Mean Temperature 42 °F -  
Max Temperature 48 °F 55 °F 82 °F (2000)
Min Temperature 37 °F 35 °F 23 °F (1989)
Degree Days  
Heating Degree Days 22    
Moisture  
Dew Point 36 °F    
Average Humidity 72    
Maximum Humidity 87    
Minimum Humidity 57    
Precipitation  
Precipitation 0.02 in - - ()
Sea Level Pressure  
Sea Level Pressure 30.02 in    
Wind  
Wind Speed 10 mph (NE)    
Max Wind Speed 17 mph    
Max Gust Speed 25 mph    
Visibility 9 miles    
Events Rain    
Averages and records for this station are not official NWS values.
T = Trace of Precipitation, MM = Missing Value Source: NWS Daily Summary

Daily Weather History Graph

Daily Weather History Graph

Search for Another Location

Airport:

Trip Planner

Search our weather history database for the weather conditions in past years. The results will help you decide how hot, cold, wet, or windy it might be!

Date:

Astronomy

May. 06, 2012 Rise Set
Actual Time 5:42 AM CDT 8:25 PM CDT
Civil Twilight 5:08 AM CDT 8:59 PM CDT
Nautical Twilight 4:24 AM CDT 9:44 PM CDT
Astronomical Twilight 3:32 AM CDT 10:36 PM CDT
Moon 9:35 PM CDT (5/6) 5:50 AM CDT (5/6)
Length of Visible Light 15h 51m
Length of Day
14h 42m
Full, 100% of the Moon is Illuminated
May 6
Full
May 12
Last Quarter
May 20
New
May 28
First Quarter
Jun 4
Full

Hourly Weather History & Observations

Time (CDT) Temp. Windchill Dew Point Humidity Pressure Visibility Wind Dir Wind Speed Gust Speed Precip Events Conditions
12:13 AM 44.6 °F 38.8 °F 32.0 °F 61% 30.05 in 10.0 mi NE 11.5 mph 16.1 mph N/A   Overcast
12:32 AM 44.6 °F 39.2 °F 32.0 °F 61% 30.06 in 10.0 mi NE 10.4 mph - N/A   Overcast
12:53 AM 44.6 °F 39.7 °F 30.2 °F 57% 30.06 in 10.0 mi ENE 9.2 mph - N/A   Overcast
1:13 AM 44.6 °F 40.2 °F 30.2 °F 57% 30.07 in 10.0 mi ENE 8.1 mph - N/A   Overcast
1:32 AM 44.6 °F 39.2 °F 30.2 °F 57% 30.08 in 10.0 mi ENE 10.4 mph - N/A   Overcast
1:53 AM 44.6 °F 39.7 °F 30.2 °F 57% 30.10 in 10.0 mi ENE 9.2 mph - N/A   Overcast
2:12 AM 44.6 °F 39.2 °F 30.2 °F 57% 30.09 in 10.0 mi ENE 10.4 mph - N/A   Overcast
2:33 AM 42.8 °F 37.0 °F 30.2 °F 61% 30.08 in 10.0 mi East 10.4 mph - N/A Rain Light Rain
3:12 AM 41.0 °F 34.7 °F 30.2 °F 65% 30.05 in 10.0 mi ENE 10.4 mph - N/A   Mostly Cloudy
3:33 AM 42.8 °F 37.0 °F 28.4 °F 57% 30.04 in 10.0 mi NE 10.4 mph - N/A   Scattered Clouds
3:53 AM 42.8 °F 37.0 °F 28.4 °F 57% 30.02 in 10.0 mi NE 10.4 mph 17.3 mph N/A   Light Drizzle
4:12 AM 41.0 °F 34.3 °F 30.2 °F 65% 30.02 in 10.0 mi NE 11.5 mph 17.3 mph N/A   Light Drizzle
4:33 AM 41.0 °F 36.4 °F 30.2 °F 65% 30.04 in 10.0 mi NE 6.9 mph - N/A   Light Drizzle
4:53 AM 41.0 °F 34.3 °F 30.2 °F 65% 30.03 in 10.0 mi NE 11.5 mph - N/A   Overcast
5:12 AM 41.0 °F 34.3 °F 30.2 °F 65% 30.02 in 10.0 mi ENE 11.5 mph 17.3 mph N/A   Overcast
5:33 AM 41.0 °F 34.3 °F 30.2 °F 65% 30.02 in 10.0 mi NE 11.5 mph 19.6 mph N/A   Mostly Cloudy
5:53 AM 42.8 °F 37.5 °F 30.2 °F 61% 30.01 in 10.0 mi NE 9.2 mph - N/A   Overcast
6:12 AM 42.8 °F 38.0 °F 30.2 °F 61% 30.03 in 10.0 mi NE 8.1 mph - N/A   Overcast
6:33 AM 41.0 °F 34.7 °F 30.2 °F 65% 30.03 in 10.0 mi NE 10.4 mph 16.1 mph N/A Rain Light Rain
6:52 AM 39.2 °F 33.6 °F 32.0 °F 75% 30.04 in 10.0 mi NE 8.1 mph - 0.02 in Rain Light Rain
7:13 AM 37.4 °F 30.3 °F 32.0 °F 81% 30.03 in 10.0 mi NE 10.4 mph - N/A   Light Drizzle
7:33 AM 39.2 °F 32.0 °F 33.8 °F 81% 30.01 in 10.0 mi NE 11.5 mph - N/A   Overcast
7:52 AM 39.2 °F 32.0 °F 33.8 °F 81% 29.99 in 10.0 mi NE 11.5 mph 18.4 mph N/A   Overcast
8:13 AM 39.2 °F 32.0 °F 35.6 °F 87% 29.98 in 10.0 mi NE 11.5 mph 16.1 mph N/A   Overcast
8:33 AM 41.0 °F 34.3 °F 35.6 °F 81% 30.01 in 10.0 mi NNE 11.5 mph - N/A   Overcast
8:52 AM 42.8 °F 37.5 °F 35.6 °F 76% 30.01 in 10.0 mi NE 9.2 mph - N/A   Mostly Cloudy
9:12 AM 42.8 °F 37.0 °F 35.6 °F 76% 30.01 in 10.0 mi NE 10.4 mph - N/A   Mostly Cloudy
9:33 AM 42.8 °F 37.0 °F 37.4 °F 81% 30.03 in 10.0 mi NE 10.4 mph - N/A   Overcast
9:52 AM 42.8 °F 37.5 °F 37.4 °F 81% 30.02 in 10.0 mi East 9.2 mph - N/A   Overcast
10:12 AM 42.8 °F 38.6 °F 37.4 °F 81% 30.05 in 10.0 mi NE 6.9 mph - N/A   Overcast
10:33 AM 44.6 °F 39.7 °F 37.4 °F 76% 30.03 in 10.0 mi ENE 9.2 mph - N/A   Overcast
10:53 AM 44.6 °F 40.7 °F 37.4 °F 76% 30.03 in 10.0 mi NE 6.9 mph - N/A   Overcast
11:12 AM 44.6 °F 40.2 °F 39.2 °F 81% 30.04 in 10.0 mi NE 8.1 mph - N/A   Overcast
11:33 AM 46.4 °F 41.1 °F 39.2 °F 76% 30.03 in 10.0 mi NE 11.5 mph 16.1 mph N/A   Overcast
11:52 AM 46.4 °F 41.5 °F 41.0 °F 81% 30.04 in 10.0 mi ENE 10.4 mph 17.3 mph N/A   Overcast
12:12 PM 46.4 °F 40.1 °F 39.2 °F 76% 30.03 in 10.0 mi ENE 15.0 mph 19.6 mph N/A   Overcast
12:33 PM 48.2 °F - 39.2 °F 71% 30.03 in 10.0 mi ENE 11.5 mph 18.4 mph N/A   Overcast
12:53 PM 48.2 °F - 39.2 °F 71% 30.02 in 10.0 mi NE 13.8 mph 21.9 mph N/A   Overcast
1:12 PM 48.2 °F - 39.2 °F 71% 30.02 in 10.0 mi ENE 15.0 mph 25.3 mph N/A   Overcast
1:33 PM 48.2 °F - 39.2 °F 71% 30.01 in 10.0 mi ENE 16.1 mph 19.6 mph N/A   Overcast
1:52 PM 48.2 °F - 39.2 °F 71% 30.01 in 10.0 mi ENE 17.3 mph 25.3 mph N/A   Overcast
2:13 PM 48.2 °F - 39.2 °F 71% 30.00 in 10.0 mi NE 12.7 mph 21.9 mph N/A   Overcast
2:33 PM 48.2 °F - 39.2 °F 71% 30.00 in 10.0 mi NE 9.2 mph - N/A   Overcast
2:52 PM 48.2 °F - 39.2 °F 71% 30.00 in 10.0 mi ENE 15.0 mph - N/A   Overcast
3:13 PM 48.2 °F - 39.2 °F 71% 30.01 in 10.0 mi ENE 13.8 mph 19.6 mph N/A   Overcast
3:33 PM 46.4 °F 41.5 °F 39.2 °F 76% 30.02 in 10.0 mi NE 10.4 mph - N/A   Overcast
3:52 PM 46.4 °F 40.4 °F 39.2 °F 76% 30.01 in 10.0 mi NE 13.8 mph 18.4 mph N/A   Overcast
4:13 PM 46.4 °F 41.1 °F 39.2 °F 76% 30.02 in 10.0 mi ENE 11.5 mph 17.3 mph N/A   Overcast
4:33 PM 46.4 °F 42.9 °F 37.4 °F 71% 30.02 in 10.0 mi ENE 6.9 mph - N/A   Overcast
4:52 PM 46.4 °F 41.5 °F 37.4 °F 71% 30.02 in 10.0 mi ENE 10.4 mph - N/A   Overcast
5:13 PM 46.4 °F 39.8 °F 39.2 °F 76% 30.01 in 10.0 mi ENE 16.1 mph - N/A   Overcast
5:33 PM 46.4 °F 40.7 °F 39.2 °F 76% 30.00 in 10.0 mi ENE 12.7 mph 18.4 mph N/A   Overcast
5:52 PM 46.4 °F 41.5 °F 39.2 °F 76% 30.01 in 10.0 mi NE 10.4 mph - N/A   Overcast
6:13 PM 46.4 °F 41.5 °F 39.2 °F 76% 30.01 in 10.0 mi NE 10.4 mph - N/A   Overcast
6:32 PM 46.4 °F 41.5 °F 39.2 °F 76% 30.00 in 10.0 mi ENE 10.4 mph - N/A   Overcast
6:53 PM 46.4 °F 43.5 °F 39.2 °F 76% 30.01 in 10.0 mi ENE 5.8 mph - N/A   Overcast
7:13 PM 46.4 °F 42.4 °F 39.2 °F 76% 30.01 in 10.0 mi ENE 8.1 mph 17.3 mph N/A   Overcast
7:32 PM 46.4 °F 43.5 °F 39.2 °F 76% 30.02 in 10.0 mi NE 5.8 mph - N/A   Overcast
7:53 PM 46.4 °F 41.9 °F 37.4 °F 71% 30.01 in 10.0 mi ENE 9.2 mph - N/A   Overcast
8:12 PM 44.6 °F 40.7 °F 37.4 °F 76% 29.99 in 10.0 mi ENE 6.9 mph - N/A   Overcast
8:32 PM 44.6 °F 40.2 °F 37.4 °F 76% 30.00 in 10.0 mi NE 8.1 mph - N/A   Overcast
8:53 PM 44.6 °F 43.1 °F 37.4 °F 76% 30.00 in 10.0 mi NE 3.5 mph - N/A   Overcast
9:12 PM 44.6 °F 39.7 °F 37.4 °F 76% 29.99 in 10.0 mi ENE 9.2 mph - N/A   Overcast
9:32 PM 44.6 °F 42.2 °F 37.4 °F 76% 29.99 in 5.0 mi NE 4.6 mph - N/A   Haze
9:53 PM 42.8 °F 40.1 °F 37.4 °F 81% 29.98 in 2.5 mi NE 4.6 mph - N/A   Haze
10:12 PM 42.8 °F 41.1 °F 37.4 °F 81% 29.97 in 1.8 mi NE 3.5 mph - N/A   Haze
10:32 PM 42.8 °F 41.1 °F 37.4 °F 81% 29.99 in 2.5 mi NNW 3.5 mph - N/A   Haze
10:53 PM 42.8 °F 41.1 °F 37.4 °F 81% 29.99 in 1.8 mi NE 3.5 mph - N/A   Haze
11:12 PM 42.8 °F 40.1 °F 37.4 °F 81% 29.98 in 1.8 mi NE 4.6 mph - N/A   Light Drizzle
11:32 PM 42.8 °F 41.1 °F 37.4 °F 81% 29.97 in 1.8 mi NE 3.5 mph - N/A   Haze
11:53 PM 42.8 °F - 37.4 °F 81% 29.98 in 1.8 mi Calm Calm - N/A   Haze